Terminal Aerodrome Forecast
Issued by NWS

Home | Current Version | Previous Version | Text Only | Print | Product List | Glossary On
Versions: 1 2 3 4 5 6 7 8 9 10 11 12 13 14 15 16
483
FTUS44 KLIX 261720
TAFMSY
TAF
KMSY 261720Z 2618/2718 16015KT P6SM SCT030
     FM270200 18008KT P6SM FEW030 SCT250
     FM271000 19008KT P6SM BKN025
     FM271400 19008KT P6SM SCT030 SCT050=

USA.gov is the U.S. government's official web portal to all federal, state and local government web resources and services.